createdAt,value
2022-08-24T00:00:12.166Z,3.20
2022-08-24T00:01:12.158Z,3.50
2022-08-24T00:02:12.427Z,3.30
2022-08-24T00:03:12.338Z,3.30
2022-08-24T00:04:13.672Z,3.30
2022-08-24T00:05:14.753Z,3.30
2022-08-24T00:06:12.104Z,3.30
2022-08-24T00:07:21.362Z,2.90
2022-08-24T00:08:12.083Z,2.90
2022-08-24T00:09:12.092Z,3.00
2022-08-24T00:10:12.061Z,2.80
2022-08-24T00:11:12.044Z,3.00
2022-08-24T00:12:12.214Z,2.70
2022-08-24T00:13:12.021Z,2.50
2022-08-24T00:14:12.033Z,2.80
2022-08-24T00:15:11.999Z,2.60
2022-08-24T00:16:12.113Z,2.60
2022-08-24T00:17:11.976Z,2.60
2022-08-24T00:18:11.994Z,2.30
2022-08-24T00:19:11.953Z,2.60
2022-08-24T00:20:11.948Z,2.20
2022-08-24T00:21:11.946Z,2.10
2022-08-24T00:22:11.922Z,2.10
2022-08-24T00:23:11.936Z,2.10
2022-08-24T00:24:11.907Z,2.10
2022-08-24T00:25:11.889Z,2.00
2022-08-24T00:26:11.881Z,2.20
2022-08-24T00:27:11.865Z,1.90
2022-08-24T00:28:11.887Z,2.00
2022-08-24T00:29:11.852Z,2.00
2022-08-24T00:30:11.842Z,2.00
2022-08-24T00:31:11.826Z,1.80
2022-08-24T00:32:11.817Z,1.80
2022-08-24T00:33:11.817Z,1.90
2022-08-24T00:34:11.792Z,1.90
2022-08-24T00:35:11.815Z,1.90
2022-08-24T00:36:11.763Z,2.10
2022-08-24T00:37:11.755Z,1.80
2022-08-24T00:38:11.745Z,1.70
2022-08-24T00:39:11.740Z,1.80
2022-08-24T00:40:11.854Z,1.80
2022-08-24T00:41:11.714Z,1.80
2022-08-24T00:42:11.698Z,1.50
2022-08-24T00:43:11.691Z,1.60
2022-08-24T00:44:11.688Z,1.60
2022-08-24T00:45:11.684Z,1.90
2022-08-24T00:47:20.625Z,1.70
2022-08-24T00:48:21.595Z,1.70
2022-08-24T00:49:21.592Z,1.70
2022-08-24T00:50:21.613Z,1.60
2022-08-24T00:51:21.564Z,1.50
2022-08-24T00:52:21.562Z,1.60
2022-08-24T00:53:21.542Z,1.60
2022-08-24T00:54:21.536Z,1.80
2022-08-24T00:55:21.550Z,1.60
2022-08-24T00:56:21.515Z,1.80
2022-08-24T00:57:21.498Z,2.20
2022-08-24T00:58:21.748Z,1.90
2022-08-24T00:59:21.490Z,1.70
2022-08-24T01:00:21.498Z,1.40
2022-08-24T01:01:21.492Z,1.60
2022-08-24T01:02:21.491Z,1.80
2022-08-24T01:03:21.433Z,1.60
2022-08-24T01:04:21.430Z,1.60
2022-08-24T01:05:21.442Z,1.70
2022-08-24T01:06:21.418Z,1.60
2022-08-24T01:07:21.394Z,1.60
2022-08-24T01:08:21.390Z,1.50
2022-08-24T01:09:21.372Z,1.70
2022-08-24T01:10:21.395Z,1.50
2022-08-24T01:11:21.355Z,1.60
2022-08-24T01:12:21.341Z,1.80
2022-08-24T01:13:21.341Z,1.60
2022-08-24T01:14:21.319Z,2.20
2022-08-24T01:15:21.338Z,1.50
2022-08-24T01:16:21.343Z,1.60
2022-08-24T01:17:21.287Z,1.70
2022-08-24T01:18:21.277Z,1.70
2022-08-24T01:19:21.266Z,1.40
2022-08-24T01:20:21.263Z,1.40
2022-08-24T01:21:21.272Z,1.50
2022-08-24T01:22:21.235Z,1.80
2022-08-24T01:23:21.218Z,1.50
2022-08-24T01:24:21.231Z,1.60
2022-08-24T01:25:21.206Z,1.80
2022-08-24T01:26:21.204Z,1.60
2022-08-24T01:27:27.793Z,2.20
2022-08-24T01:28:27.191Z,1.60
2022-08-24T01:29:21.157Z,1.60
2022-08-24T01:30:21.589Z,1.60
2022-08-24T01:31:21.226Z,1.50
2022-08-24T01:32:21.124Z,1.60
2022-08-24T01:33:21.109Z,1.50
2022-08-24T01:34:21.103Z,1.60
2022-08-24T01:35:21.123Z,1.60
2022-08-24T01:36:21.081Z,1.90
2022-08-24T01:37:21.072Z,2.00
2022-08-24T01:38:21.057Z,1.60
2022-08-24T01:39:21.048Z,1.80
2022-08-24T01:40:21.155Z,1.40
2022-08-24T01:41:21.038Z,1.50
2022-08-24T01:42:21.017Z,1.70
2022-08-24T01:43:21.000Z,1.60
2022-08-24T01:44:20.989Z,1.60
2022-08-24T01:45:21.013Z,1.70
2022-08-24T01:46:21.038Z,1.60
2022-08-24T01:47:20.958Z,1.60
2022-08-24T01:48:23.029Z,1.50
2022-08-24T01:49:20.934Z,1.80
2022-08-24T01:50:20.942Z,1.90
2022-08-24T01:51:20.951Z,1.70
2022-08-24T01:52:20.902Z,1.70
2022-08-24T01:53:20.896Z,1.70
2022-08-24T01:54:20.886Z,2.00
2022-08-24T01:55:22.615Z,1.90
2022-08-24T01:56:20.876Z,1.40
2022-08-24T01:57:20.892Z,1.70
2022-08-24T01:58:20.859Z,1.70
2022-08-24T01:59:20.835Z,1.70
2022-08-24T02:00:20.827Z,1.50
2022-08-24T02:01:20.855Z,1.70
2022-08-24T02:02:20.825Z,1.70
2022-08-24T02:03:20.855Z,1.70
2022-08-24T02:04:20.772Z,1.50
2022-08-24T02:05:20.765Z,1.70
2022-08-24T02:06:20.755Z,1.50
2022-08-24T02:07:20.768Z,2.00
2022-08-24T02:08:20.841Z,1.90
2022-08-24T02:09:20.719Z,1.90
2022-08-24T02:10:20.714Z,1.50
2022-08-24T02:11:20.722Z,2.00
2022-08-24T02:12:20.716Z,1.70
2022-08-24T02:13:20.676Z,1.60
2022-08-24T02:14:20.664Z,1.70
2022-08-24T02:15:20.652Z,1.60
2022-08-24T02:16:20.715Z,1.70
2022-08-24T02:17:20.668Z,1.90
2022-08-24T02:18:20.631Z,1.50
2022-08-24T02:19:20.613Z,1.70
2022-08-24T02:20:20.596Z,1.70
2022-08-24T02:21:20.594Z,1.70
2022-08-24T02:22:20.616Z,1.70
2022-08-24T02:23:20.581Z,1.70
2022-08-24T02:24:20.564Z,1.70
2022-08-24T02:25:20.563Z,1.70
2022-08-24T02:26:20.536Z,1.50
2022-08-24T02:27:20.547Z,1.80
2022-08-24T02:28:20.516Z,1.70
2022-08-24T02:29:20.498Z,1.70
2022-08-24T02:30:20.498Z,1.80
2022-08-24T02:31:20.531Z,1.80
2022-08-24T02:32:20.495Z,1.70
2022-08-24T02:33:20.458Z,1.90
2022-08-24T02:34:20.444Z,1.70
2022-08-24T02:35:20.437Z,1.40
2022-08-24T02:36:25.951Z,1.70
2022-08-24T02:37:20.440Z,1.60
2022-08-24T02:38:20.405Z,1.90
2022-08-24T02:39:20.390Z,1.90
2022-08-24T02:40:20.417Z,1.70
2022-08-24T02:41:20.367Z,1.80
2022-08-24T02:42:20.394Z,1.90
2022-08-24T02:43:20.353Z,1.80
2022-08-24T02:44:20.345Z,1.60
2022-08-24T02:45:20.322Z,1.60
2022-08-24T02:46:20.359Z,1.60
2022-08-24T02:48:29.291Z,1.60
2022-08-24T02:49:30.303Z,1.90
2022-08-24T02:50:30.240Z,1.60
2022-08-24T02:51:30.235Z,1.60
2022-08-24T02:52:30.217Z,2.10
2022-08-24T02:53:30.235Z,1.70
2022-08-24T02:54:30.198Z,1.70
2022-08-24T02:55:30.191Z,1.70
2022-08-24T02:56:30.177Z,1.80
2022-08-24T02:57:30.166Z,1.60
2022-08-24T02:58:30.177Z,1.70
2022-08-24T02:59:30.145Z,1.80
2022-08-24T03:00:30.132Z,1.50
2022-08-24T03:01:30.313Z,1.90
2022-08-24T03:02:30.214Z,1.70
2022-08-24T03:03:30.110Z,1.70
2022-08-24T03:04:30.094Z,1.70
2022-08-24T03:05:30.073Z,1.70
2022-08-24T03:06:30.062Z,2.00
2022-08-24T03:07:30.078Z,1.90
2022-08-24T03:08:30.055Z,1.80
2022-08-24T03:09:30.034Z,1.60
2022-08-24T03:10:30.019Z,1.70
2022-08-24T03:11:30.010Z,1.70
2022-08-24T03:12:29.999Z,2.00
2022-08-24T03:13:30.003Z,1.90
2022-08-24T03:14:29.976Z,1.60
2022-08-24T03:15:30.063Z,1.80
2022-08-24T03:16:29.963Z,1.70
2022-08-24T03:17:29.971Z,1.60
2022-08-24T03:18:29.930Z,1.90
2022-08-24T03:19:29.925Z,1.80
2022-08-24T03:20:29.913Z,1.80
2022-08-24T03:21:29.893Z,1.90
2022-08-24T03:22:29.895Z,2.10
2022-08-24T03:23:31.986Z,1.70
2022-08-24T03:24:29.880Z,1.90
2022-08-24T03:25:29.849Z,1.70
2022-08-24T03:26:29.845Z,2.20
2022-08-24T03:27:29.826Z,1.80
2022-08-24T03:28:29.826Z,1.70
2022-08-24T03:29:29.845Z,1.70
2022-08-24T03:30:29.880Z,1.70
2022-08-24T03:31:29.800Z,1.80
2022-08-24T03:32:29.780Z,1.80
2022-08-24T03:33:29.765Z,1.70
2022-08-24T03:34:29.779Z,2.00
2022-08-24T03:35:29.750Z,2.00
2022-08-24T03:36:29.725Z,1.80
2022-08-24T03:37:29.726Z,1.80
2022-08-24T03:38:29.706Z,1.90
2022-08-24T03:39:29.710Z,1.90
2022-08-24T03:40:29.723Z,1.80
2022-08-24T03:41:29.731Z,1.60
2022-08-24T03:42:29.664Z,1.60
2022-08-24T03:43:29.655Z,1.60
2022-08-24T03:44:29.638Z,1.70
2022-08-24T03:45:29.632Z,1.70
2022-08-24T03:46:29.642Z,1.80
2022-08-24T03:47:29.611Z,1.80
2022-08-24T03:48:29.593Z,1.80
2022-08-24T03:49:29.590Z,1.70
2022-08-24T03:50:29.570Z,1.80
2022-08-24T03:51:30.342Z,1.70
2022-08-24T03:52:32.179Z,2.00
2022-08-24T03:53:29.537Z,1.80
2022-08-24T03:54:29.524Z,2.00
2022-08-24T03:55:29.514Z,1.80
2022-08-24T03:56:29.529Z,1.60
2022-08-24T03:57:29.497Z,1.70
2022-08-24T03:58:29.481Z,1.80
2022-08-24T03:59:29.474Z,1.90
2022-08-24T04:00:29.463Z,1.80
2022-08-24T04:01:29.547Z,1.80
2022-08-24T04:02:32.922Z,1.70
2022-08-24T04:03:29.429Z,1.90
2022-08-24T04:04:29.428Z,2.00
2022-08-24T04:05:29.401Z,1.90
2022-08-24T04:06:29.423Z,2.10
2022-08-24T04:07:29.394Z,1.60
2022-08-24T04:08:29.370Z,1.80
2022-08-24T04:09:29.430Z,1.90
2022-08-24T04:10:29.351Z,1.80
2022-08-24T04:11:29.365Z,1.80
2022-08-24T04:12:29.325Z,2.10
2022-08-24T04:13:29.320Z,1.70
2022-08-24T04:14:29.310Z,1.60
2022-08-24T04:15:29.303Z,1.50
2022-08-24T04:16:29.379Z,2.30
2022-08-24T04:17:29.274Z,1.90
2022-08-24T04:18:29.757Z,2.00
2022-08-24T04:19:29.252Z,1.90
2022-08-24T04:20:29.236Z,1.80
2022-08-24T04:21:29.263Z,1.90
2022-08-24T04:22:29.216Z,1.70
2022-08-24T04:23:46.569Z,1.70
2022-08-24T04:24:29.196Z,2.20
2022-08-24T04:25:29.181Z,1.90
2022-08-24T04:26:44.711Z,2.00
2022-08-24T04:27:29.160Z,1.80
2022-08-24T04:28:29.151Z,1.80
2022-08-24T04:29:29.141Z,1.80
2022-08-24T04:30:29.141Z,1.50
2022-08-24T04:31:29.161Z,2.10
2022-08-24T04:32:29.121Z,1.70
2022-08-24T04:33:29.091Z,1.90
2022-08-24T04:34:29.085Z,1.90
2022-08-24T04:35:29.072Z,2.00
2022-08-24T04:36:29.090Z,1.80
2022-08-24T04:37:29.299Z,1.90
2022-08-24T04:38:29.033Z,1.80
2022-08-24T04:39:29.029Z,1.80
2022-08-24T04:40:29.149Z,1.90
2022-08-24T04:41:31.362Z,2.00
2022-08-24T04:42:28.999Z,1.90
2022-08-24T04:43:28.978Z,1.90
2022-08-24T04:44:28.969Z,1.80
2022-08-24T04:45:29.018Z,1.80
2022-08-24T04:46:28.949Z,2.10
2022-08-24T04:47:28.944Z,1.80
2022-08-24T04:49:37.885Z,2.70
2022-08-24T04:50:38.904Z,2.30
2022-08-24T04:51:38.863Z,1.80
2022-08-24T04:52:38.852Z,2.00
2022-08-24T04:53:38.841Z,2.10
2022-08-24T04:54:38.829Z,1.80
2022-08-24T04:55:38.846Z,1.90
2022-08-24T04:56:38.821Z,2.10
2022-08-24T04:57:38.794Z,2.10
2022-08-24T04:58:38.789Z,2.20
2022-08-24T04:59:38.774Z,1.80
2022-08-24T05:00:38.822Z,2.00
2022-08-24T05:01:38.759Z,2.40
2022-08-24T05:02:43.017Z,2.20
2022-08-24T05:03:38.733Z,2.10
2022-08-24T05:04:38.719Z,2.10
2022-08-24T05:05:38.734Z,2.10
2022-08-24T05:06:38.700Z,2.10
2022-08-24T05:07:38.689Z,2.30
2022-08-24T05:08:38.680Z,2.10
2022-08-24T05:09:38.675Z,2.10
2022-08-24T05:10:38.680Z,2.00
2022-08-24T05:11:38.647Z,2.00
2022-08-24T05:12:38.646Z,2.30
2022-08-24T05:13:38.623Z,2.20
2022-08-24T05:14:38.609Z,2.30
2022-08-24T05:15:38.629Z,2.50
2022-08-24T05:16:38.658Z,2.20
2022-08-24T05:17:38.581Z,2.40
2022-08-24T05:18:38.577Z,2.30
2022-08-24T05:19:38.559Z,1.80
2022-08-24T05:20:38.569Z,2.40
2022-08-24T05:21:40.000Z,2.10
2022-08-24T05:22:38.520Z,2.10
2022-08-24T05:23:38.514Z,2.20
2022-08-24T05:24:38.521Z,2.20
2022-08-24T05:25:38.501Z,2.30
2022-08-24T05:26:38.486Z,2.10
2022-08-24T05:27:38.510Z,2.30
2022-08-24T05:28:38.469Z,2.10
2022-08-24T05:29:38.475Z,2.10
2022-08-24T05:30:42.494Z,2.00
2022-08-24T05:31:38.556Z,2.20
2022-08-24T05:32:38.438Z,2.10
2022-08-24T05:33:38.419Z,2.20
2022-08-24T05:34:38.398Z,2.40
2022-08-24T05:35:38.380Z,2.20
2022-08-24T05:36:38.391Z,2.30
2022-08-24T05:37:38.375Z,2.20
2022-08-24T05:38:38.381Z,2.20
2022-08-24T05:39:38.354Z,2.40
2022-08-24T05:40:38.327Z,1.90
2022-08-24T05:41:38.330Z,2.20
2022-08-24T05:42:38.384Z,2.50
2022-08-24T05:43:38.315Z,2.30
2022-08-24T05:44:38.334Z,2.20
2022-08-24T05:45:38.303Z,2.40
2022-08-24T05:46:38.369Z,2.50
2022-08-24T05:47:38.490Z,1.90
2022-08-24T05:48:38.270Z,2.00
2022-08-24T05:49:41.376Z,2.10
2022-08-24T05:50:38.227Z,2.10
2022-08-24T05:51:38.223Z,2.00
2022-08-24T05:52:38.195Z,2.00
2022-08-24T05:53:38.187Z,1.90
2022-08-24T05:54:38.187Z,1.90
2022-08-24T05:55:38.167Z,2.30
2022-08-24T05:56:38.198Z,2.10
2022-08-24T05:57:38.161Z,2.20
2022-08-24T05:58:38.162Z,2.20
2022-08-24T05:59:38.174Z,2.10
2022-08-24T06:00:38.194Z,2.00
2022-08-24T06:01:41.186Z,2.20
2022-08-24T06:02:38.211Z,1.90
2022-08-24T06:03:38.157Z,2.20
2022-08-24T06:04:38.114Z,1.90
2022-08-24T06:05:38.756Z,1.90
2022-08-24T06:22:51.799Z,1.90
2022-08-24T06:23:49.721Z,2.30
2022-08-24T06:30:06.728Z,2.00
2022-08-24T06:34:18.223Z,1.90
2022-08-24T06:35:11.211Z,2.20
2022-08-24T06:35:11.392Z,2.30
2022-08-24T06:35:47.756Z,2.10
2022-08-24T06:36:47.229Z,2.10
2022-08-24T06:37:38.641Z,1.90
2022-08-24T06:37:44.784Z,2.30
2022-08-24T06:37:47.215Z,2.10
2022-08-24T06:38:47.225Z,2.10
2022-08-24T06:39:47.365Z,1.90
2022-08-24T06:40:52.198Z,2.00
2022-08-24T06:41:47.147Z,2.10
2022-08-24T06:42:47.188Z,2.00
2022-08-24T06:43:47.174Z,2.10
2022-08-24T06:44:47.133Z,1.80
2022-08-24T06:45:47.103Z,2.00
2022-08-24T06:46:47.137Z,2.20
2022-08-24T06:47:47.084Z,2.20
2022-08-24T06:48:47.105Z,2.10
2022-08-24T06:49:47.063Z,2.10
2022-08-24T06:50:47.069Z,2.10
2022-08-24T06:51:50.537Z,1.90
2022-08-24T06:52:47.054Z,1.80
2022-08-24T06:53:47.103Z,1.80
2022-08-24T06:54:47.147Z,2.10
2022-08-24T06:55:47.009Z,2.00
2022-08-24T06:56:46.984Z,1.80
2022-08-24T06:57:51.683Z,1.80
2022-08-24T06:58:46.965Z,1.90
2022-08-24T06:59:46.982Z,2.00
2022-08-24T07:00:46.943Z,2.00
2022-08-24T07:01:47.037Z,2.10
2022-08-24T07:02:47.015Z,2.20
2022-08-24T07:03:54.286Z,2.10
2022-08-24T07:04:46.921Z,2.10
2022-08-24T07:05:47.001Z,2.00
2022-08-24T07:06:47.085Z,2.30
2022-08-24T07:07:46.885Z,2.10
2022-08-24T07:08:46.883Z,2.10
2022-08-24T07:09:46.865Z,1.90
2022-08-24T07:10:46.834Z,1.80
2022-08-24T07:11:46.823Z,2.10
2022-08-24T07:12:47.189Z,2.00
2022-08-24T07:13:46.793Z,2.00
2022-08-24T07:14:46.832Z,1.80
2022-08-24T07:24:51.276Z,1.90
2022-08-24T07:26:21.365Z,1.90
2022-08-24T07:26:21.749Z,1.90
2022-08-24T07:26:46.809Z,2.00
2022-08-24T07:26:58.064Z,2.10
2022-08-24T07:27:45.122Z,1.80
2022-08-24T07:27:46.649Z,1.90
2022-08-24T07:28:46.669Z,2.00
2022-08-24T07:29:53.031Z,2.00
2022-08-24T07:30:46.694Z,1.90
2022-08-24T07:31:46.743Z,2.00
2022-08-24T07:32:46.604Z,1.90
2022-08-24T07:33:46.632Z,2.30
2022-08-24T07:34:46.611Z,1.90
2022-08-24T07:35:46.563Z,1.70
2022-08-24T07:36:46.593Z,2.10
2022-08-24T07:37:46.551Z,1.90
2022-08-24T07:38:46.629Z,2.20
2022-08-24T07:39:46.672Z,1.80
2022-08-24T07:41:09.236Z,1.70
2022-08-24T07:42:11.070Z,2.10
2022-08-24T07:42:46.513Z,1.80
2022-08-24T07:43:46.499Z,2.10
2022-08-24T07:44:46.493Z,1.90
2022-08-24T07:45:46.450Z,1.80
2022-08-24T07:46:46.582Z,2.20
2022-08-24T07:47:54.682Z,1.90
2022-08-24T07:48:46.446Z,1.90
2022-08-24T07:49:46.480Z,2.10
2022-08-24T07:50:46.402Z,2.30
2022-08-24T07:51:46.836Z,1.70
2022-08-24T07:52:46.376Z,2.10
2022-08-24T07:53:54.390Z,2.10
2022-08-24T07:54:46.394Z,2.10
2022-08-24T07:55:46.451Z,1.80
2022-08-24T07:56:46.384Z,2.00
2022-08-24T08:00:01.871Z,2.10
2022-08-24T08:00:46.297Z,2.00
2022-08-24T08:00:53.729Z,2.00
2022-08-24T08:01:42.962Z,1.90
2022-08-24T08:01:46.388Z,1.90
2022-08-24T08:02:46.327Z,2.00
2022-08-24T08:03:46.256Z,1.70
2022-08-24T08:04:46.251Z,2.00
2022-08-24T08:05:46.246Z,1.90
2022-08-24T08:06:46.380Z,1.70
2022-08-24T08:07:48.781Z,2.10
2022-08-24T08:08:46.210Z,1.90
2022-08-24T08:09:46.273Z,2.00
2022-08-24T08:10:46.191Z,1.70
2022-08-24T08:11:46.197Z,2.00
2022-08-24T08:12:46.191Z,1.70
2022-08-24T08:13:46.164Z,1.90
2022-08-24T08:15:59.402Z,1.60
2022-08-24T08:16:56.191Z,1.80
2022-08-24T08:17:56.342Z,1.90
2022-08-24T08:19:11.611Z,1.80
2022-08-24T08:19:56.140Z,2.00
2022-08-24T08:20:56.147Z,2.00
2022-08-24T08:21:56.118Z,1.90
2022-08-24T08:22:56.084Z,2.10
2022-08-24T08:23:56.077Z,2.10
2022-08-24T08:24:56.121Z,1.90
2022-08-24T08:25:56.139Z,1.80
2022-08-24T08:26:56.056Z,2.10
2022-08-24T08:28:01.058Z,1.90
2022-08-24T08:28:56.030Z,1.80
2022-08-24T08:29:56.490Z,1.90
2022-08-24T08:30:56.029Z,2.00
2022-08-24T08:31:56.047Z,1.70
2022-08-24T08:32:55.982Z,2.00
2022-08-24T08:33:55.961Z,1.70
2022-08-24T08:35:00.170Z,2.10
2022-08-24T08:35:55.941Z,1.70
2022-08-24T08:36:56.007Z,1.90
2022-08-24T08:37:55.944Z,2.10
2022-08-24T08:38:55.977Z,1.70
2022-08-24T08:39:56.044Z,1.90
2022-08-24T08:40:55.924Z,2.10
2022-08-24T08:41:55.992Z,2.00
2022-08-24T08:42:56.747Z,1.90
2022-08-24T08:43:55.866Z,2.10
2022-08-24T08:44:55.857Z,2.00
2022-08-24T08:45:55.920Z,2.00
2022-08-24T08:46:55.863Z,1.90
2022-08-24T08:47:55.854Z,2.00
2022-08-24T08:48:55.864Z,1.90
2022-08-24T08:49:55.799Z,1.90
2022-08-24T08:50:56.135Z,2.20
2022-08-24T08:51:56.007Z,2.00
2022-08-24T08:52:55.845Z,2.10
2022-08-24T08:53:55.786Z,1.90
2022-08-24T08:54:55.754Z,2.00
2022-08-24T08:55:55.738Z,2.20
2022-08-24T08:56:59.335Z,1.80
2022-08-24T09:01:07.202Z,2.00
2022-08-24T09:04:17.773Z,2.10
2022-08-24T09:06:44.907Z,2.00
2022-08-24T09:07:38.955Z,1.70
2022-08-24T09:16:10.668Z,2.10
2022-08-24T09:16:10.856Z,1.90
2022-08-24T09:16:11.222Z,2.00
2022-08-24T09:16:24.041Z,2.20
2022-08-24T09:16:36.245Z,2.30
2022-08-24T09:16:58.803Z,1.90
2022-08-24T09:17:07.558Z,2.20
2022-08-24T09:18:05.156Z,2.10
2022-08-24T09:19:04.951Z,2.30
2022-08-24T09:20:04.969Z,2.20
2022-08-24T09:21:04.947Z,2.10
2022-08-24T09:22:04.989Z,2.20
2022-08-24T09:23:04.919Z,2.20
2022-08-24T09:24:04.893Z,2.30
2022-08-24T09:25:04.913Z,2.10
2022-08-24T09:26:04.865Z,2.10
2022-08-24T09:27:04.859Z,1.80
2022-08-24T09:28:05.163Z,2.10
2022-08-24T09:29:04.864Z,2.00
2022-08-24T09:30:04.829Z,2.30
2022-08-24T09:31:04.988Z,2.10
2022-08-24T09:32:04.816Z,1.90
2022-08-24T09:33:05.101Z,2.30
2022-08-24T09:34:04.797Z,2.10
2022-08-24T09:35:04.805Z,1.90
2022-08-24T09:36:04.766Z,2.50
2022-08-24T09:37:04.749Z,2.10
2022-08-24T09:38:04.742Z,2.10
2022-08-24T09:39:04.759Z,1.90
2022-08-24T09:40:04.782Z,2.20
2022-08-24T09:41:04.843Z,2.10
2022-08-24T09:42:04.710Z,2.20
2022-08-24T09:43:05.062Z,2.10
2022-08-24T09:44:04.702Z,2.30
2022-08-24T09:45:04.683Z,1.80
2022-08-24T09:46:04.729Z,1.90
2022-08-24T09:47:04.663Z,2.20
2022-08-24T09:48:04.675Z,2.30
2022-08-24T09:49:04.627Z,2.10
2022-08-24T09:50:04.908Z,2.30
2022-08-24T09:51:04.602Z,2.00
2022-08-24T09:52:04.593Z,2.10
2022-08-24T09:53:04.814Z,2.20
2022-08-24T09:54:04.591Z,2.20
2022-08-24T09:55:04.564Z,2.10
2022-08-24T09:56:04.577Z,2.00
2022-08-24T09:57:12.271Z,1.90
2022-08-24T09:58:04.569Z,1.90
2022-08-24T09:59:04.532Z,2.00
2022-08-24T10:00:04.508Z,2.30
2022-08-24T10:01:04.562Z,2.30
2022-08-24T10:02:04.532Z,2.00
2022-08-24T10:03:04.545Z,2.10
2022-08-24T10:04:04.588Z,2.10
2022-08-24T10:05:04.613Z,1.90
2022-08-24T10:06:04.623Z,2.10
2022-08-24T10:07:04.457Z,2.20
2022-08-24T10:08:04.523Z,2.30
2022-08-24T10:09:04.444Z,2.10
2022-08-24T10:10:04.416Z,2.20
2022-08-24T10:11:04.398Z,2.30
2022-08-24T10:12:04.383Z,2.10
2022-08-24T10:13:04.375Z,2.30
2022-08-24T10:14:04.388Z,2.30
2022-08-24T10:15:04.475Z,2.20
2022-08-24T10:16:04.481Z,2.70
2022-08-24T10:17:04.381Z,1.90
2022-08-24T10:18:04.482Z,2.50
2022-08-24T10:19:04.329Z,2.20
2022-08-24T10:20:04.323Z,2.20
2022-08-24T10:21:04.460Z,2.20
2022-08-24T10:22:04.291Z,2.40
2022-08-24T10:23:04.289Z,2.40
2022-08-24T10:24:04.261Z,2.30
2022-08-24T10:25:04.251Z,2.40
2022-08-24T10:26:04.271Z,2.50
2022-08-24T10:27:04.231Z,2.40
2022-08-24T10:28:04.497Z,2.20
2022-08-24T10:29:04.219Z,2.50
2022-08-24T10:30:04.574Z,2.40
2022-08-24T10:31:04.232Z,2.20
2022-08-24T10:32:04.335Z,2.20
2022-08-24T10:33:04.165Z,2.40
2022-08-24T10:34:04.180Z,2.10
2022-08-24T10:35:04.148Z,2.40
2022-08-24T10:36:04.476Z,2.10
2022-08-24T10:37:04.144Z,2.30
2022-08-24T10:38:04.407Z,2.40
2022-08-24T10:39:04.103Z,2.30
2022-08-24T10:40:06.222Z,2.50
2022-08-24T10:41:04.091Z,2.20
2022-08-24T10:42:04.102Z,2.30
2022-08-24T10:43:04.101Z,2.30
2022-08-24T10:44:04.056Z,2.40
2022-08-24T10:45:04.127Z,2.10
2022-08-24T10:46:04.095Z,2.20
2022-08-24T10:47:04.084Z,2.40
2022-08-24T10:48:04.341Z,2.40
2022-08-24T10:49:04.176Z,2.60
2022-08-24T10:50:04.134Z,2.20
2022-08-24T10:51:04.010Z,2.30
2022-08-24T10:52:04.028Z,2.20
2022-08-24T10:53:04.007Z,2.50
2022-08-24T10:54:03.995Z,2.40
2022-08-24T10:55:03.981Z,2.40
2022-08-24T10:56:03.945Z,2.20
2022-08-24T10:57:03.990Z,2.20
2022-08-24T10:58:04.063Z,2.70
2022-08-24T10:59:03.903Z,2.30
2022-08-24T11:00:04.307Z,2.30
2022-08-24T11:01:03.999Z,2.30
2022-08-24T11:02:08.434Z,2.00
2022-08-24T11:03:03.860Z,2.30
2022-08-24T11:04:03.883Z,2.30
2022-08-24T11:06:12.361Z,2.00
2022-08-24T11:07:13.314Z,2.30
2022-08-24T11:08:13.293Z,2.20
2022-08-24T11:09:18.644Z,2.30
2022-08-24T11:10:13.361Z,2.30
2022-08-24T11:11:13.287Z,2.20
2022-08-24T11:12:13.277Z,2.00
2022-08-24T11:13:13.266Z,2.30
2022-08-24T11:14:13.276Z,2.30
2022-08-24T11:15:13.220Z,2.30
2022-08-24T11:16:13.349Z,2.60
2022-08-24T11:17:13.197Z,2.10
2022-08-24T11:18:13.201Z,2.30
2022-08-24T11:19:13.206Z,2.40
2022-08-24T11:20:13.219Z,2.40
2022-08-24T11:21:13.155Z,2.20
2022-08-24T11:22:13.143Z,2.60
2022-08-24T11:23:13.133Z,2.20
2022-08-24T11:24:13.139Z,2.30
2022-08-24T11:25:13.129Z,2.30
2022-08-24T11:26:13.100Z,2.20
2022-08-24T11:27:13.101Z,2.50
2022-08-24T11:28:13.087Z,2.60
2022-08-24T11:29:13.090Z,2.30
2022-08-24T11:30:13.110Z,2.30
2022-08-24T11:31:13.127Z,2.20
2022-08-24T11:32:13.143Z,2.50
2022-08-24T11:33:13.032Z,2.40
2022-08-24T11:34:13.024Z,2.30
2022-08-24T11:35:13.025Z,2.20
2022-08-24T11:36:13.025Z,2.50
2022-08-24T11:37:12.988Z,2.40
2022-08-24T11:38:13.000Z,2.30
2022-08-24T11:39:12.996Z,2.40
2022-08-24T11:40:13.045Z,2.30
2022-08-24T11:41:12.940Z,2.60
2022-08-24T11:42:12.943Z,2.50
2022-08-24T11:43:12.923Z,2.20
2022-08-24T11:44:12.942Z,2.40
2022-08-24T11:45:12.915Z,2.10
2022-08-24T11:46:12.938Z,2.20
2022-08-24T11:47:12.887Z,2.40
2022-08-24T11:48:12.873Z,2.30
2022-08-24T11:49:12.876Z,2.50
2022-08-24T11:50:12.872Z,2.30
2022-08-24T11:51:12.836Z,2.30
2022-08-24T11:52:12.825Z,2.20
2022-08-24T11:53:12.957Z,2.30
2022-08-24T11:54:12.808Z,2.00
2022-08-24T11:55:12.793Z,2.20
2022-08-24T11:56:14.492Z,2.10
2022-08-24T11:57:12.793Z,2.10
2022-08-24T11:58:12.779Z,2.10
2022-08-24T11:59:12.750Z,2.40
2022-08-24T12:00:12.740Z,2.10
2022-08-24T12:01:12.751Z,2.30
2022-08-24T12:02:12.896Z,2.40
2022-08-24T12:03:12.861Z,2.30
2022-08-24T12:04:12.729Z,2.10
2022-08-24T12:05:14.321Z,2.20
2022-08-24T12:06:12.689Z,2.20
2022-08-24T12:07:12.673Z,2.30
2022-08-24T12:08:12.658Z,2.20
2022-08-24T12:09:12.667Z,2.10
2022-08-24T12:10:12.642Z,2.30
2022-08-24T12:11:12.636Z,2.30
2022-08-24T12:12:12.612Z,2.10
2022-08-24T12:13:12.603Z,2.10
2022-08-24T12:14:12.631Z,2.60
2022-08-24T12:15:12.584Z,2.30
2022-08-24T12:16:12.589Z,2.60
2022-08-24T12:17:12.565Z,2.40
2022-08-24T12:18:12.559Z,2.60
2022-08-24T12:19:12.567Z,2.20
2022-08-24T12:20:12.535Z,2.30
2022-08-24T12:21:12.898Z,2.10
2022-08-24T12:22:12.515Z,2.40
2022-08-24T12:23:12.520Z,2.60
2022-08-24T12:24:12.489Z,2.30
2022-08-24T12:25:12.494Z,2.00
2022-08-24T12:26:12.474Z,2.10
2022-08-24T12:27:12.473Z,2.40
2022-08-24T12:28:12.449Z,2.30
2022-08-24T12:29:12.439Z,2.20
2022-08-24T12:30:12.484Z,2.10
2022-08-24T12:31:12.458Z,2.10
2022-08-24T12:32:12.410Z,2.30
2022-08-24T12:33:12.398Z,2.30
2022-08-24T12:34:12.381Z,2.20
2022-08-24T12:35:12.389Z,2.40
2022-08-24T12:36:12.386Z,2.10
2022-08-24T12:37:16.267Z,2.00
2022-08-24T12:38:12.351Z,2.50
2022-08-24T12:39:12.334Z,2.10
2022-08-24T12:40:12.426Z,2.10
2022-08-24T12:41:14.722Z,2.10
2022-08-24T12:42:15.835Z,2.20
2022-08-24T12:43:12.297Z,2.40
2022-08-24T12:44:12.281Z,2.30
2022-08-24T12:45:12.267Z,2.20
2022-08-24T12:46:12.310Z,2.10
2022-08-24T12:47:13.437Z,2.00
2022-08-24T12:48:12.333Z,2.10
2022-08-24T12:49:12.230Z,2.20
2022-08-24T12:50:12.217Z,2.00
2022-08-24T12:51:12.213Z,2.10
2022-08-24T12:52:12.203Z,2.10
2022-08-24T12:53:14.132Z,2.10
2022-08-24T12:54:12.182Z,1.80
2022-08-24T12:55:12.208Z,2.00
2022-08-24T12:56:12.176Z,1.80
2022-08-24T12:57:12.149Z,2.10
2022-08-24T12:59:12.139Z,2.10
2022-08-24T13:00:12.144Z,2.00
2022-08-24T13:01:12.198Z,1.80
2022-08-24T13:02:12.225Z,1.80
2022-08-24T13:03:12.093Z,1.90
2022-08-24T13:04:12.075Z,1.60
2022-08-24T13:05:12.093Z,2.10
2022-08-24T13:07:21.016Z,1.90
2022-08-24T13:08:22.006Z,1.90
2022-08-24T13:09:22.000Z,1.90
2022-08-24T13:10:22.000Z,2.10
2022-08-24T13:11:21.973Z,2.00
2022-08-24T13:12:24.291Z,2.10
2022-08-24T13:13:21.951Z,2.00
2022-08-24T13:14:21.971Z,2.20
2022-08-24T13:15:21.926Z,1.90
2022-08-24T13:16:21.956Z,2.10
2022-08-24T13:17:21.941Z,2.00
2022-08-24T13:18:22.510Z,2.00
2022-08-24T13:19:21.890Z,1.80
2022-08-24T13:20:21.895Z,2.00
2022-08-24T13:21:21.889Z,1.60
2022-08-24T13:22:21.902Z,1.70
2022-08-24T13:23:21.854Z,1.90
2022-08-24T13:24:21.844Z,1.80
2022-08-24T13:25:21.828Z,2.30
2022-08-24T13:26:21.833Z,2.00
2022-08-24T13:27:21.826Z,1.90
2022-08-24T13:28:21.805Z,2.20
2022-08-24T13:29:21.833Z,2.20
2022-08-24T13:30:21.810Z,1.80
2022-08-24T13:31:21.806Z,1.90
2022-08-24T13:32:21.768Z,2.00
2022-08-24T13:33:21.754Z,1.90
2022-08-24T13:34:21.738Z,2.20
2022-08-24T13:35:21.767Z,1.90
2022-08-24T13:36:21.728Z,1.80
2022-08-24T13:37:21.711Z,1.90
2022-08-24T13:38:21.721Z,2.20
2022-08-24T13:39:21.697Z,1.90
2022-08-24T13:40:27.921Z,2.10
2022-08-24T13:41:21.674Z,1.80
2022-08-24T13:42:21.679Z,1.80
2022-08-24T13:43:21.647Z,1.90
2022-08-24T13:44:21.643Z,1.90
2022-08-24T13:45:21.679Z,1.90
2022-08-24T13:46:21.743Z,1.70
2022-08-24T13:47:22.859Z,1.80
2022-08-24T13:48:21.599Z,2.00
2022-08-24T13:49:21.623Z,1.80
2022-08-24T13:50:21.596Z,1.90
2022-08-24T13:51:21.575Z,1.80
2022-08-24T13:52:21.566Z,2.00
2022-08-24T13:53:21.549Z,2.00
2022-08-24T13:54:22.583Z,1.80
2022-08-24T13:55:22.188Z,2.00
2022-08-24T13:56:21.530Z,2.00
2022-08-24T13:57:21.519Z,2.00
2022-08-24T13:58:21.502Z,1.90
2022-08-24T13:59:21.503Z,1.70
2022-08-24T14:00:21.505Z,2.00
2022-08-24T14:01:21.506Z,2.10
2022-08-24T14:02:21.465Z,1.70